Main page


Airports :


Guernsey Airport

latitude: 49-26N, longitude: 002-36W, elevation: 102 m

Current weather observation

The report was made 28 minutes ago, at 05:50 UTC
Wind 12 kt from the Northeast
Temperature 3°C
Humidity 65%
Pressure 1023 hPa
Visibility 10 km or more
Few clouds at a height of 2500 ft
Broken clouds at a height of 2800 ft

METAR: EGJB 200550Z 04012KT 9999 FEW025 BKN028 03/M03 Q1023

Time: 06:18 (06:18 UTC)


The report was made 1 hour and 20 minutes ago, at 04:58 UTC
Forecast valid from 20 at 06 UTC to 20 at 15 UTC
Wind 14 kt from the Northeast
Visibility 10 km or more
Scattered clouds at a height of 3000 ft
from 20 at 10 UTC to 20 at 13 UTC
Visibility: 8000 m
Broken clouds at a height of 2000 ft
light rain showers

TAF: EGJB 200458Z 2006/2015 04014KT 9999 SCT030 TEMPO 2010/2013 8000 -SHRA BKN020

Weather observations and forecasts of more than 4000 airports (METAR and TAF reports).

The available stations are represented by yellow and red dots on the map.

Hover mouse over dot to see the name of the station.

Then click to see weather observations and forecasts.

To change the map : click on the green buttons with a black cross to zoom in, on the green button with a dash to zoom out, or on the green arrows for adjacent maps.